sensor_id;sensor_type;location;lat;lon;timestamp;pressure;altitude;pressure_sealevel;temperature;humidity
26697;BME280;14312;52.614;13.496;2023-05-09T00:00:52;101803.44;;;10.97;44.60
26697;BME280;14312;52.614;13.496;2023-05-09T00:03:39;101805.09;;;10.98;44.27
26697;BME280;14312;52.614;13.496;2023-05-09T00:06:25;101794.41;;;10.98;44.43
26697;BME280;14312;52.614;13.496;2023-05-09T00:09:12;101804.06;;;10.99;44.41
26697;BME280;14312;52.614;13.496;2023-05-09T00:11:58;101808.38;;;11.00;44.57
26697;BME280;14312;52.614;13.496;2023-05-09T00:14:44;101794.41;;;10.98;44.39
26697;BME280;14312;52.614;13.496;2023-05-09T00:17:30;101796.06;;;10.99;44.53
26697;BME280;14312;52.614;13.496;2023-05-09T00:20:16;101793.41;;;10.99;44.63
26697;BME280;14312;52.614;13.496;2023-05-09T00:23:02;101796.06;;;10.99;44.70
26697;BME280;14312;52.614;13.496;2023-05-09T00:25:49;101802.00;;;11.01;44.63
26697;BME280;14312;52.614;13.496;2023-05-09T00:28:35;101792.38;;;11.00;44.69
26697;BME280;14312;52.614;13.496;2023-05-09T00:31:21;101797.69;;;11.00;44.89
26697;BME280;14312;52.614;13.496;2023-05-09T00:34:07;101803.03;;;11.00;44.91
26697;BME280;14312;52.614;13.496;2023-05-09T00:36:54;101808.38;;;11.00;44.82
26697;BME280;14312;52.614;13.496;2023-05-09T00:39:39;101806.72;;;10.99;44.69
26697;BME280;14312;52.614;13.496;2023-05-09T00:42:25;101808.38;;;11.00;44.97
26697;BME280;14312;52.614;13.496;2023-05-09T00:45:11;101802.22;;;10.99;44.89
26697;BME280;14312;52.614;13.496;2023-05-09T00:47:57;101804.88;;;10.99;44.99
26697;BME280;14312;52.614;13.496;2023-05-09T00:50:43;101795.44;;;10.97;45.00
26697;BME280;14312;52.614;13.496;2023-05-09T00:53:30;101796.47;;;10.96;45.07
26697;BME280;14312;52.614;13.496;2023-05-09T00:56:16;101794.84;;;10.95;44.87
26697;BME280;14312;52.614;13.496;2023-05-09T00:59:02;101787.28;;;10.92;45.14
26697;BME280;14312;52.614;13.496;2023-05-09T01:01:48;101792.00;;;10.90;45.05
26697;BME280;14312;52.614;13.496;2023-05-09T01:04:34;101785.22;;;10.87;45.07
26697;BME280;14312;52.614;13.496;2023-05-09T01:07:34;101781.16;;;10.85;45.15
26697;BME280;14312;52.614;13.496;2023-05-09T01:10:45;101778.72;;;10.83;46.24
26697;BME280;14312;52.614;13.496;2023-05-09T01:16:48;101771.16;;;10.74;46.38
26697;BME280;14312;52.614;13.496;2023-05-09T01:19:53;101769.56;;;10.66;46.37
26697;BME280;14312;52.614;13.496;2023-05-09T01:22:46;101765.88;;;10.60;45.75
26697;BME280;14312;52.614;13.496;2023-05-09T01:25:39;101765.72;;;10.55;45.02
26697;BME280;14312;52.614;13.496;2023-05-09T01:32:03;101763.72;;;10.44;45.74
26697;BME280;14312;52.614;13.496;2023-05-09T01:34:52;101766.81;;;10.41;45.42
26697;BME280;14312;52.614;13.496;2023-05-09T01:37:42;101761.06;;;10.38;45.77
26697;BME280;14312;52.614;13.496;2023-05-09T01:40:30;101760.69;;;10.34;45.98
26697;BME280;14312;52.614;13.496;2023-05-09T01:43:18;101759.66;;;10.35;45.84
26697;BME280;14312;52.614;13.496;2023-05-09T01:46:07;101759.03;;;10.33;45.64
26697;BME280;14312;52.614;13.496;2023-05-09T01:48:55;101751.25;;;10.32;45.50
26697;BME280;14312;52.614;13.496;2023-05-09T01:51:42;101752.28;;;10.31;45.59
26697;BME280;14312;52.614;13.496;2023-05-09T01:54:29;101750.88;;;10.28;46.11
26697;BME280;14312;52.614;13.496;2023-05-09T01:57:16;101754.56;;;10.27;46.20
26697;BME280;14312;52.614;13.496;2023-05-09T02:00:04;101748.63;;;10.25;46.05
26697;BME280;14312;52.614;13.496;2023-05-09T02:02:53;101749.63;;;10.24;45.84
26697;BME280;14312;52.614;13.496;2023-05-09T02:05:40;101758.06;;;10.21;46.27
26697;BME280;14312;52.614;13.496;2023-05-09T02:08:28;101759.09;;;10.20;45.90
26697;BME280;14312;52.614;13.496;2023-05-09T02:11:14;101754.16;;;10.17;46.17
26697;BME280;14312;52.614;13.496;2023-05-09T02:14:00;101766.88;;;10.15;46.16
26697;BME280;14312;52.614;13.496;2023-05-09T02:16:46;101758.25;;;10.13;45.99
26697;BME280;14312;52.614;13.496;2023-05-09T02:19:33;101755.41;;;10.08;46.42
26697;BME280;14312;52.614;13.496;2023-05-09T02:22:20;101759.50;;;10.04;46.17
26697;BME280;14312;52.614;13.496;2023-05-09T02:25:07;101756.66;;;9.99;46.15
26697;BME280;14312;52.614;13.496;2023-05-09T02:27:55;101759.94;;;9.94;46.47
26697;BME280;14312;52.614;13.496;2023-05-09T02:30:44;101759.94;;;9.88;46.42
26697;BME280;14312;52.614;13.496;2023-05-09T02:33:33;101754.22;;;9.84;46.33
26697;BME280;14312;52.614;13.496;2023-05-09T02:36:21;101765.50;;;9.79;46.18
26697;BME280;14312;52.614;13.496;2023-05-09T02:39:08;101759.75;;;9.69;46.39
26697;BME280;14312;52.614;13.496;2023-05-09T02:41:54;101759.13;;;9.67;46.36
26697;BME280;14312;52.614;13.496;2023-05-09T02:44:40;101766.94;;;9.62;46.20
26697;BME280;14312;52.614;13.496;2023-05-09T02:47:26;101773.06;;;9.56;46.32
26697;BME280;14312;52.614;13.496;2023-05-09T02:50:12;101769.41;;;9.51;46.69
26697;BME280;14312;52.614;13.496;2023-05-09T02:52:58;101758.75;;;9.44;46.57
26697;BME280;14312;52.614;13.496;2023-05-09T02:55:44;101761.19;;;9.39;46.65
26697;BME280;14312;52.614;13.496;2023-05-09T02:58:30;101754.03;;;9.33;46.68
26697;BME280;14312;52.614;13.496;2023-05-09T03:01:16;101761.19;;;9.26;46.65
26697;BME280;14312;52.614;13.496;2023-05-09T03:04:03;101760.34;;;9.19;46.52
26697;BME280;14312;52.614;13.496;2023-05-09T03:06:49;101766.50;;;9.13;46.44
26697;BME280;14312;52.614;13.496;2023-05-09T03:09:35;101760.34;;;9.06;46.51
26697;BME280;14312;52.614;13.496;2023-05-09T03:12:21;101752.56;;;8.97;46.76
26697;BME280;14312;52.614;13.496;2023-05-09T03:15:07;101754.00;;;8.93;46.86
26697;BME280;14312;52.614;13.496;2023-05-09T03:17:53;101753.75;;;8.88;46.84
26697;BME280;14312;52.614;13.496;2023-05-09T03:20:39;101745.56;;;8.83;47.18
26697;BME280;14312;52.614;13.496;2023-05-09T03:23:25;101750.50;;;8.80;47.27
26697;BME280;14312;52.614;13.496;2023-05-09T03:26:11;101750.06;;;8.76;47.15
26697;BME280;14312;52.614;13.496;2023-05-09T03:28:57;101741.44;;;8.74;47.13
26697;BME280;14312;52.614;13.496;2023-05-09T03:31:43;101749.66;;;8.73;47.19
26697;BME280;14312;52.614;13.496;2023-05-09T03:34:29;101745.53;;;8.70;47.06
26697;BME280;14312;52.614;13.496;2023-05-09T03:37:15;101749.22;;;8.69;47.45
26697;BME280;14312;52.614;13.496;2023-05-09T03:40:01;101749.41;;;8.68;47.44
26697;BME280;14312;52.614;13.496;2023-05-09T03:42:47;101743.50;;;8.66;47.59
26697;BME280;14312;52.614;13.496;2023-05-09T03:45:33;101750.00;;;8.63;47.53
26697;BME280;14312;52.614;13.496;2023-05-09T03:48:20;101753.69;;;8.62;47.60
26697;BME280;14312;52.614;13.496;2023-05-09T03:51:06;101748.78;;;8.59;47.60
26697;BME280;14312;52.614;13.496;2023-05-09T03:53:52;101752.47;;;8.58;47.65
26697;BME280;14312;52.614;13.496;2023-05-09T03:56:38;101751.63;;;8.57;47.64
26697;BME280;14312;52.614;13.496;2023-05-09T03:59:24;101745.50;;;8.57;47.99
26697;BME280;14312;52.614;13.496;2023-05-09T04:02:10;101750.81;;;8.57;47.88
26697;BME280;14312;52.614;13.496;2023-05-09T04:04:56;101747.16;;;8.58;47.88
26697;BME280;14312;52.614;13.496;2023-05-09T04:07:42;101744.31;;;8.59;48.16
26697;BME280;14312;52.614;13.496;2023-05-09T04:10:29;101737.75;;;8.62;48.23
26697;BME280;14312;52.614;13.496;2023-05-09T04:13:15;101726.72;;;8.65;48.21
26697;BME280;14312;52.614;13.496;2023-05-09T04:16:01;101727.75;;;8.71;48.25
26697;BME280;14312;52.614;13.496;2023-05-09T04:18:47;101728.78;;;8.76;48.36
26697;BME280;14312;52.614;13.496;2023-05-09T04:21:33;101724.31;;;8.83;48.52
26697;BME280;14312;52.614;13.496;2023-05-09T04:24:19;101734.13;;;8.89;48.34
26697;BME280;14312;52.614;13.496;2023-05-09T04:27:05;101725.78;;;8.99;48.75
26697;BME280;14312;52.614;13.496;2023-05-09T04:29:51;101731.72;;;9.08;48.60
26697;BME280;14312;52.614;13.496;2023-05-09T04:32:38;101742.56;;;9.19;48.90
26697;BME280;14312;52.614;13.496;2023-05-09T04:35:24;101732.13;;;9.31;48.88
26697;BME280;14312;52.614;13.496;2023-05-09T04:38:11;101728.88;;;9.42;48.79
26697;BME280;14312;52.614;13.496;2023-05-09T04:40:57;101728.88;;;9.55;49.01
26697;BME280;14312;52.614;13.496;2023-05-09T04:43:43;101726.38;;;9.67;49.08
26697;BME280;14312;52.614;13.496;2023-05-09T04:46:29;101720.25;;;9.79;48.86
26697;BME280;14312;52.614;13.496;2023-05-09T04:49:15;101723.91;;;9.92;49.00
26697;BME280;14312;52.614;13.496;2023-05-09T04:52:01;101730.22;;;10.04;48.91
26697;BME280;14312;52.614;13.496;2023-05-09T04:54:47;101734.91;;;10.15;48.98
26697;BME280;14312;52.614;13.496;2023-05-09T04:57:32;101731.59;;;10.26;48.82
26697;BME280;14312;52.614;13.496;2023-05-09T05:00:18;101732.00;;;10.36;48.71
26697;BME280;14312;52.614;13.496;2023-05-09T05:03:05;101736.66;;;10.47;48.70
26697;BME280;14312;52.614;13.496;2023-05-09T05:05:51;101722.88;;;10.57;48.99
26697;BME280;14312;52.614;13.496;2023-05-09T05:08:37;101714.19;;;10.68;48.72
26697;BME280;14312;52.614;13.496;2023-05-09T05:11:23;101727.69;;;10.80;48.95
26697;BME280;14312;52.614;13.496;2023-05-09T05:14:09;101718.97;;;10.91;48.98
26697;BME280;14312;52.614;13.496;2023-05-09T05:16:55;101724.66;;;11.01;48.95
26697;BME280;14312;52.614;13.496;2023-05-09T05:19:41;101729.91;;;11.14;48.89
26697;BME280;14312;52.614;13.496;2023-05-09T05:22:27;101728.16;;;11.26;49.04
26697;BME280;14312;52.614;13.496;2023-05-09T05:25:13;101727.44;;;11.37;48.90
26697;BME280;14312;52.614;13.496;2023-05-09T05:27:59;101728.38;;;11.50;48.79
26697;BME280;14312;52.614;13.496;2023-05-09T05:30:45;101725.81;;;11.61;48.60
26697;BME280;14312;52.614;13.496;2023-05-09T05:33:31;101719.53;;;11.74;48.78
26697;BME280;14312;52.614;13.496;2023-05-09T05:36:17;101716.72;;;11.87;48.73
26697;BME280;14312;52.614;13.496;2023-05-09T05:39:03;101711.50;;;11.99;48.73
26697;BME280;14312;52.614;13.496;2023-05-09T05:41:49;101720.38;;;12.11;48.23
26697;BME280;14312;52.614;13.496;2023-05-09T05:44:36;101705.47;;;12.22;48.64
26697;BME280;14312;52.614;13.496;2023-05-09T05:47:22;101703.69;;;12.34;48.31
26697;BME280;14312;52.614;13.496;2023-05-09T05:50:08;101705.56;;;12.45;48.28
26697;BME280;14312;52.614;13.496;2023-05-09T05:52:56;101704.22;;;12.54;47.92
26697;BME280;14312;52.614;13.496;2023-05-09T05:55:42;101697.06;;;12.66;47.67
26697;BME280;14312;52.614;13.496;2023-05-09T05:58:30;101685.59;;;12.77;48.01
26697;BME280;14312;52.614;13.496;2023-05-09T06:01:16;101690.16;;;12.88;47.89
26697;BME280;14312;52.614;13.496;2023-05-09T06:04:02;101686.69;;;13.00;47.73
26697;BME280;14312;52.614;13.496;2023-05-09T06:06:48;101685.31;;;13.09;47.51
26697;BME280;14312;52.614;13.496;2023-05-09T06:09:34;101678.16;;;13.21;47.29
26697;BME280;14312;52.614;13.496;2023-05-09T06:12:20;101666.63;;;13.32;47.26
26697;BME280;14312;52.614;13.496;2023-05-09T06:15:06;101666.63;;;13.44;47.12
26697;BME280;14312;52.614;13.496;2023-05-09T06:17:52;101659.41;;;13.56;46.99
26697;BME280;14312;52.614;13.496;2023-05-09T06:20:38;101664.16;;;13.65;46.75
26697;BME280;14312;52.614;13.496;2023-05-09T06:23:25;101661.47;;;13.77;46.62
26697;BME280;14312;52.614;13.496;2023-05-09T06:26:10;101666.22;;;13.87;46.85
26697;BME280;14312;52.614;13.496;2023-05-09T06:28:57;101664.34;;;13.99;46.52
26697;BME280;14312;52.614;13.496;2023-05-09T06:31:43;101652.19;;;14.08;46.29
26697;BME280;14312;52.614;13.496;2023-05-09T06:34:28;101654.34;;;14.23;45.75
26697;BME280;14312;52.614;13.496;2023-05-09T06:37:14;101647.81;;;14.30;45.70
26697;BME280;14312;52.614;13.496;2023-05-09T06:40:00;101640.00;;;14.40;45.82
26697;BME280;14312;52.614;13.496;2023-05-09T06:42:46;101641.78;;;14.52;44.90
26697;BME280;14312;52.614;13.496;2023-05-09T06:45:32;101636.38;;;14.63;44.92
26697;BME280;14312;52.614;13.496;2023-05-09T06:48:18;101638.97;;;14.75;44.48
26697;BME280;14312;52.614;13.496;2023-05-09T06:51:05;101628.16;;;14.86;43.90
26697;BME280;14312;52.614;13.496;2023-05-09T06:53:50;101614.84;;;14.92;43.65
26697;BME280;14312;52.614;13.496;2023-05-09T06:56:36;101621.75;;;15.04;43.21
26697;BME280;14312;52.614;13.496;2023-05-09T06:59:22;101609.53;;;15.13;42.53
26697;BME280;14312;52.614;13.496;2023-05-09T07:02:08;101613.34;;;15.17;42.72
26697;BME280;14312;52.614;13.496;2023-05-09T07:04:54;101609.91;;;15.22;42.94
26697;BME280;14312;52.614;13.496;2023-05-09T07:07:40;101608.13;;;15.27;42.99
26697;BME280;14312;52.614;13.496;2023-05-09T07:10:26;101595.91;;;15.37;42.64
26697;BME280;14312;52.614;13.496;2023-05-09T07:13:12;101598.66;;;15.42;42.95
26697;BME280;14312;52.614;13.496;2023-05-09T07:15:58;101590.97;;;15.50;43.24
26697;BME280;14312;52.614;13.496;2023-05-09T07:18:44;101575.03;;;15.60;43.04
26697;BME280;14312;52.614;13.496;2023-05-09T07:21:30;101567.66;;;15.73;42.65
26697;BME280;14312;52.614;13.496;2023-05-09T07:24:18;101567.25;;;15.86;41.76
26697;BME280;14312;52.614;13.496;2023-05-09T07:27:05;101568.19;;;15.96;40.79
26697;BME280;14312;52.614;13.496;2023-05-09T07:29:50;101557.47;;;16.01;40.88
26697;BME280;14312;52.614;13.496;2023-05-09T07:32:37;101568.28;;;16.06;40.79
26697;BME280;14312;52.614;13.496;2023-05-09T07:35:23;101563.50;;;16.14;40.68
26697;BME280;14312;52.614;13.496;2023-05-09T07:38:08;101554.19;;;16.21;40.60
26697;BME280;14312;52.614;13.496;2023-05-09T07:40:55;101555.09;;;16.32;40.35
26697;BME280;14312;52.614;13.496;2023-05-09T07:43:41;101542.00;;;16.40;40.45
26697;BME280;14312;52.614;13.496;2023-05-09T07:46:27;101537.50;;;16.51;39.89
26697;BME280;14312;52.614;13.496;2023-05-09T07:49:13;101539.72;;;16.59;40.16
26697;BME280;14312;52.614;13.496;2023-05-09T07:51:59;101524.47;;;16.70;40.20
26697;BME280;14312;52.614;13.496;2023-05-09T07:54:45;101524.31;;;16.81;39.68
26697;BME280;14312;52.614;13.496;2023-05-09T07:57:31;101529.22;;;16.95;39.35
26697;BME280;14312;52.614;13.496;2023-05-09T08:00:17;101514.75;;;17.06;38.92
26697;BME280;14312;52.614;13.496;2023-05-09T08:03:08;101512.94;;;17.16;38.35
26697;BME280;14312;52.614;13.496;2023-05-09T08:05:54;101508.38;;;17.27;38.20
26697;BME280;14312;52.614;13.496;2023-05-09T08:08:40;101503.56;;;17.34;37.80
26697;BME280;14312;52.614;13.496;2023-05-09T08:11:26;101503.06;;;17.42;38.12
26697;BME280;14312;52.614;13.496;2023-05-09T08:14:12;101502.56;;;17.50;37.92
26697;BME280;14312;52.614;13.496;2023-05-09T08:16:58;101501.22;;;17.58;38.02
26697;BME280;14312;52.614;13.496;2023-05-09T08:19:44;101502.38;;;17.67;37.46
26697;BME280;14312;52.614;13.496;2023-05-09T08:22:30;101494.59;;;17.76;37.18
26697;BME280;14312;52.614;13.496;2023-05-09T08:25:16;101495.13;;;17.83;37.65
26697;BME280;14312;52.614;13.496;2023-05-09T08:28:03;101486.50;;;17.91;37.40
26697;BME280;14312;52.614;13.496;2023-05-09T08:30:52;101487.59;;;18.05;36.19
26697;BME280;14312;52.614;13.496;2023-05-09T08:33:38;101487.31;;;18.12;36.00
26697;BME280;14312;52.614;13.496;2023-05-09T08:36:24;101493.56;;;18.22;35.57
26697;BME280;14312;52.614;13.496;2023-05-09T08:39:10;101474.66;;;18.27;35.91
26697;BME280;14312;52.614;13.496;2023-05-09T08:41:57;101483.28;;;18.29;36.30
26697;BME280;14312;52.614;13.496;2023-05-09T08:44:44;101480.06;;;18.37;36.18
26697;BME280;14312;52.614;13.496;2023-05-09T08:47:33;101474.63;;;18.48;37.16
26697;BME280;14312;52.614;13.496;2023-05-09T08:50:20;101473.28;;;18.70;35.85
26697;BME280;14312;52.614;13.496;2023-05-09T08:53:07;101471.91;;;18.83;36.50
26697;BME280;14312;52.614;13.496;2023-05-09T08:55:53;101472.94;;;18.97;36.91
26697;BME280;14312;52.614;13.496;2023-05-09T08:58:39;101478.28;;;19.17;36.68
26697;BME280;14312;52.614;13.496;2023-05-09T09:01:26;101479.00;;;19.38;35.98
26697;BME280;14312;52.614;13.496;2023-05-09T09:04:12;101478.13;;;19.58;34.73
26697;BME280;14312;52.614;13.496;2023-05-09T09:06:58;101462.91;;;19.72;35.19
26697;BME280;14312;52.614;13.496;2023-05-09T09:09:46;101468.72;;;19.89;34.54
26697;BME280;14312;52.614;13.496;2023-05-09T09:12:33;101474.31;;;20.03;34.23
26697;BME280;14312;52.614;13.496;2023-05-09T09:15:21;101456.84;;;20.19;33.93
26697;BME280;14312;52.614;13.496;2023-05-09T09:18:11;101452.66;;;20.32;33.98
26697;BME280;14312;52.614;13.496;2023-05-09T09:21:06;101455.03;;;20.44;34.61
26697;BME280;14312;52.614;13.496;2023-05-09T09:23:54;101439.47;;;20.59;35.22
26697;BME280;14312;52.614;13.496;2023-05-09T09:26:46;101452.16;;;20.88;34.52
26697;BME280;14312;52.614;13.496;2023-05-09T09:29:33;101444.31;;;21.10;34.22
26697;BME280;14312;52.614;13.496;2023-05-09T09:32:19;101438.03;;;21.33;34.13
26697;BME280;14312;52.614;13.496;2023-05-09T09:35:07;101437.97;;;21.57;33.30
26697;BME280;14312;52.614;13.496;2023-05-09T09:37:56;101435.25;;;21.76;32.24
26697;BME280;14312;52.614;13.496;2023-05-09T09:40:53;101432.28;;;21.91;33.01
26697;BME280;14312;52.614;13.496;2023-05-09T09:43:43;101423.41;;;22.04;32.79
26697;BME280;14312;52.614;13.496;2023-05-09T09:46:42;101420.75;;;22.18;32.63
26697;BME280;14312;52.614;13.496;2023-05-09T09:49:29;101413.13;;;22.34;32.67
26697;BME280;14312;52.614;13.496;2023-05-09T09:52:22;101416.09;;;22.51;32.42
26697;BME280;14312;52.614;13.496;2023-05-09T09:55:10;101405.53;;;22.63;31.47
26697;BME280;14312;52.614;13.496;2023-05-09T09:57:56;101409.97;;;22.73;31.43
26697;BME280;14312;52.614;13.496;2023-05-09T10:00:42;101395.88;;;22.84;29.40
26697;BME280;14312;52.614;13.496;2023-05-09T10:03:34;101393.06;;;22.89;28.68
26697;BME280;14312;52.614;13.496;2023-05-09T10:06:20;101393.16;;;22.84;28.13
26697;BME280;14312;52.614;13.496;2023-05-09T10:09:06;101390.84;;;22.78;28.22
26697;BME280;14312;52.614;13.496;2023-05-09T10:11:53;101380.38;;;22.71;28.75
26697;BME280;14312;52.614;13.496;2023-05-09T10:14:41;101371.91;;;22.73;27.23
26697;BME280;14312;52.614;13.496;2023-05-09T10:17:28;101376.13;;;22.65;28.79
26697;BME280;14312;52.614;13.496;2023-05-09T10:20:16;101362.63;;;22.60;29.23
26697;BME280;14312;52.614;13.496;2023-05-09T10:23:03;101360.94;;;22.64;29.58
26697;BME280;14312;52.614;13.496;2023-05-09T10:28:50;101364.66;;;22.82;30.76
26697;BME280;14312;52.614;13.496;2023-05-09T10:31:40;101350.56;;;22.93;31.01
26697;BME280;14312;52.614;13.496;2023-05-09T10:34:30;101354.06;;;23.08;31.04
26697;BME280;14312;52.614;13.496;2023-05-09T10:37:19;101351.00;;;23.23;31.09
26697;BME280;14312;52.614;13.496;2023-05-09T10:40:06;101338.75;;;23.34;31.17
26697;BME280;14312;52.614;13.496;2023-05-09T10:42:52;101350.69;;;23.47;31.00
26697;BME280;14312;52.614;13.496;2023-05-09T10:45:39;101339.91;;;23.55;31.03
26697;BME280;14312;52.614;13.496;2023-05-09T10:48:25;101329.59;;;23.66;31.00
26697;BME280;14312;52.614;13.496;2023-05-09T10:51:11;101333.97;;;23.75;30.96
26697;BME280;14312;52.614;13.496;2023-05-09T10:53:58;101340.13;;;23.90;29.47
26697;BME280;14312;52.614;13.496;2023-05-09T10:56:44;101327.97;;;23.96;29.79
26697;BME280;14312;52.614;13.496;2023-05-09T10:59:35;101329.44;;;24.02;29.97
26697;BME280;14312;52.614;13.496;2023-05-09T11:02:22;101327.72;;;24.06;30.46
26697;BME280;14312;52.614;13.496;2023-05-09T11:05:15;101318.16;;;24.17;30.67
26697;BME280;14312;52.614;13.496;2023-05-09T11:11:21;101310.44;;;24.41;30.61
26697;BME280;14312;52.614;13.496;2023-05-09T11:14:30;101302.44;;;24.53;28.83
26697;BME280;14312;52.614;13.496;2023-05-09T11:20:07;101287.66;;;24.46;27.27
26697;BME280;14312;52.614;13.496;2023-05-09T11:22:56;101285.22;;;24.27;27.53
26697;BME280;14312;52.614;13.496;2023-05-09T11:25:45;101274.56;;;24.17;28.23
26697;BME280;14312;52.614;13.496;2023-05-09T11:28:37;101283.09;;;24.15;28.02
26697;BME280;14312;52.614;13.496;2023-05-09T11:31:23;101277.28;;;24.17;28.46
26697;BME280;14312;52.614;13.496;2023-05-09T11:34:09;101270.16;;;24.21;27.70
26697;BME280;14312;52.614;13.496;2023-05-09T11:37:07;101264.69;;;24.21;28.28
26697;BME280;14312;52.614;13.496;2023-05-09T11:39:56;101259.41;;;24.25;28.63
26697;BME280;14312;52.614;13.496;2023-05-09T11:42:46;101249.03;;;24.35;27.95
26697;BME280;14312;52.614;13.496;2023-05-09T11:45:33;101249.69;;;24.41;28.16
26697;BME280;14312;52.614;13.496;2023-05-09T11:48:20;101242.66;;;24.48;28.13
26697;BME280;14312;52.614;13.496;2023-05-09T11:51:15;101228.22;;;24.56;28.33
26697;BME280;14312;52.614;13.496;2023-05-09T11:54:01;101219.25;;;24.65;28.79
26697;BME280;14312;52.614;13.496;2023-05-09T11:56:47;101222.16;;;24.77;28.58
26697;BME280;14312;52.614;13.496;2023-05-09T11:59:33;101218.97;;;24.92;28.21
26697;BME280;14312;52.614;13.496;2023-05-09T12:02:20;101219.09;;;25.04;27.80
26697;BME280;14312;52.614;13.496;2023-05-09T12:05:12;101216.88;;;25.15;28.00
26697;BME280;14312;52.614;13.496;2023-05-09T12:08:02;101210.91;;;25.21;27.26
26697;BME280;14312;52.614;13.496;2023-05-09T12:10:50;101203.19;;;25.23;25.42
26697;BME280;14312;52.614;13.496;2023-05-09T12:13:48;101202.72;;;25.13;26.94
26697;BME280;14312;52.614;13.496;2023-05-09T12:16:34;101197.47;;;24.99;26.24
26697;BME280;14312;52.614;13.496;2023-05-09T12:19:22;101190.22;;;24.94;26.75
26697;BME280;14312;52.614;13.496;2023-05-09T12:22:08;101175.34;;;24.92;27.40
26697;BME280;14312;52.614;13.496;2023-05-09T12:24:55;101169.06;;;25.00;27.97
26697;BME280;14312;52.614;13.496;2023-05-09T12:27:42;101168.06;;;25.13;27.33
26697;BME280;14312;52.614;13.496;2023-05-09T12:30:28;101167.25;;;25.21;27.50
26697;BME280;14312;52.614;13.496;2023-05-09T12:33:14;101170.75;;;25.30;26.72
26697;BME280;14312;52.614;13.496;2023-05-09T12:36:06;101164.94;;;25.41;25.58
26697;BME280;14312;52.614;13.496;2023-05-09T12:38:53;101159.00;;;25.39;25.73
26697;BME280;14312;52.614;13.496;2023-05-09T12:41:44;101156.28;;;25.39;25.46
26697;BME280;14312;52.614;13.496;2023-05-09T12:44:30;101148.91;;;25.30;25.75
26697;BME280;14312;52.614;13.496;2023-05-09T12:47:16;101137.53;;;25.28;25.09
26697;BME280;14312;52.614;13.496;2023-05-09T12:50:04;101141.22;;;25.24;24.94
26697;BME280;14312;52.614;13.496;2023-05-09T12:52:50;101137.59;;;25.11;25.13
26697;BME280;14312;52.614;13.496;2023-05-09T12:55:38;101138.59;;;24.98;25.42
26697;BME280;14312;52.614;13.496;2023-05-09T12:58:32;101122.41;;;24.93;24.97
26697;BME280;14312;52.614;13.496;2023-05-09T13:01:19;101132.81;;;24.82;25.13
26697;BME280;14312;52.614;13.496;2023-05-09T13:04:06;101128.47;;;24.73;25.99
26697;BME280;14312;52.614;13.496;2023-05-09T13:06:56;101125.59;;;24.78;26.76
26697;BME280;14312;52.614;13.496;2023-05-09T13:09:54;101123.53;;;24.92;26.67
26697;BME280;14312;52.614;13.496;2023-05-09T13:12:45;101126.06;;;25.06;26.64
26697;BME280;14312;52.614;13.496;2023-05-09T13:15:33;101107.88;;;25.18;26.86
26697;BME280;14312;52.614;13.496;2023-05-09T13:18:20;101113.91;;;25.32;26.88
26697;BME280;14312;52.614;13.496;2023-05-09T13:21:06;101110.13;;;25.54;26.86
26697;BME280;14312;52.614;13.496;2023-05-09T13:23:52;101102.03;;;25.75;26.68
26697;BME280;14312;52.614;13.496;2023-05-09T13:26:38;101101.91;;;25.92;25.99
26697;BME280;14312;52.614;13.496;2023-05-09T13:29:24;101093.31;;;26.02;25.88
26697;BME280;14312;52.614;13.496;2023-05-09T13:32:10;101091.59;;;26.19;25.18
26697;BME280;14312;52.614;13.496;2023-05-09T13:34:56;101081.44;;;26.28;24.33
26697;BME280;14312;52.614;13.496;2023-05-09T13:37:42;101078.41;;;26.21;25.22
26697;BME280;14312;52.614;13.496;2023-05-09T13:40:28;101076.00;;;26.19;25.95
26697;BME280;14312;52.614;13.496;2023-05-09T13:43:14;101067.78;;;26.28;26.06
26697;BME280;14312;52.614;13.496;2023-05-09T13:46:00;101070.53;;;26.40;25.58
26697;BME280;14312;52.614;13.496;2023-05-09T13:48:45;101065.13;;;26.52;25.74
26697;BME280;14312;52.614;13.496;2023-05-09T13:51:32;101055.94;;;26.69;25.44
26697;BME280;14312;52.614;13.496;2023-05-09T13:54:18;101048.34;;;26.86;25.45
26697;BME280;14312;52.614;13.496;2023-05-09T13:57:04;101046.09;;;27.01;25.36
26697;BME280;14312;52.614;13.496;2023-05-09T13:59:50;101030.84;;;27.12;24.74
26697;BME280;14312;52.614;13.496;2023-05-09T14:02:36;101027.66;;;27.22;25.05
26697;BME280;14312;52.614;13.496;2023-05-09T14:05:22;101022.19;;;27.34;25.16
26697;BME280;14312;52.614;13.496;2023-05-09T14:08:08;101019.09;;;27.48;23.62
26697;BME280;14312;52.614;13.496;2023-05-09T14:10:54;101015.22;;;27.49;23.85
26697;BME280;14312;52.614;13.496;2023-05-09T14:13:40;101009.38;;;27.50;23.12
26697;BME280;14312;52.614;13.496;2023-05-09T14:16:26;101006.09;;;27.45;22.78
26697;BME280;14312;52.614;13.496;2023-05-09T14:19:13;101005.75;;;27.34;22.34
26697;BME280;14312;52.614;13.496;2023-05-09T14:22:02;100997.31;;;27.15;23.46
26697;BME280;14312;52.614;13.496;2023-05-09T14:24:49;100997.09;;;27.08;23.83
26697;BME280;14312;52.614;13.496;2023-05-09T14:27:35;100978.88;;;27.12;24.51
26697;BME280;14312;52.614;13.496;2023-05-09T14:30:21;100991.63;;;27.32;23.81
26697;BME280;14312;52.614;13.496;2023-05-09T14:33:07;100992.84;;;27.47;23.06
26697;BME280;14312;52.614;13.496;2023-05-09T14:35:53;100972.53;;;27.48;22.98
26697;BME280;14312;52.614;13.496;2023-05-09T14:38:40;100968.56;;;27.45;23.74
26697;BME280;14312;52.614;13.496;2023-05-09T14:41:27;100967.88;;;27.48;23.99